Time;durP1;ratioP1;P1;durP2;ratioP2;P2;SDS_P1;SDS_P2;PMS_P1;PMS_P2;Temp;Humidity;BMP_temperature;BMP_pressure;BME280_temperature;BME280_humidity;BME280_pressure;Samples;Min_cycle;Max_cycle;Signal;HPM_P1;HPM_P2
2021/07/02 00:02:17;;;;;;;11.80;8.85;;;;;;;13.49;85.35;101706.72;5055913;28;20754;-39
2021/07/02 00:04:42;;;;;;;14.43;10.00;;;;;;;13.38;85.51;101706.44;5055989;28;20021;-39
2021/07/02 00:07:08;;;;;;;14.27;9.95;;;;;;;13.36;85.86;101705.81;5055809;28;20021;-39
2021/07/02 00:09:33;;;;;;;15.27;10.38;;;;;;;13.30;85.69;101705.91;5055806;28;20047;-39
2021/07/02 00:11:59;;;;;;;16.98;10.07;;;;;;;13.28;85.71;101699.91;5056540;28;20075;-39
2021/07/02 00:14:24;;;;;;;14.13;10.13;;;;;;;13.19;85.81;101696.63;5056176;28;20107;-39
2021/07/02 00:16:50;;;;;;;15.47;10.03;;;;;;;13.17;86.10;101695.16;5055330;28;20511;-39
2021/07/02 00:19:15;;;;;;;16.60;10.25;;;;;;;13.17;86.19;101697.88;5054820;28;20445;-38
2021/07/02 00:21:40;;;;;;;16.43;10.10;;;;;;;13.20;86.42;101697.44;5055688;28;20060;-39
2021/07/02 00:24:06;;;;;;;18.47;10.77;;;;;;;13.25;86.31;101697.63;5075114;28;20297;-39
2021/07/02 00:26:31;;;;;;;19.63;11.50;;;;;;;13.22;86.79;101693.47;5075496;28;20016;-39
2021/07/02 00:28:57;;;;;;;15.47;9.73;;;;;;;13.29;86.81;101686.06;5075957;28;20410;-39
2021/07/02 00:31:22;;;;;;;14.35;10.98;;;;;;;13.21;86.47;101683.63;5075930;28;20251;-39
2021/07/02 00:33:47;;;;;;;18.90;12.30;;;;;;;13.23;86.82;101691.59;5075270;28;20032;-38
2021/07/02 00:36:13;;;;;;;16.93;11.60;;;;;;;13.22;87.02;101687.19;5076065;28;20097;-39
2021/07/02 00:38:38;;;;;;;17.43;11.47;;;;;;;13.30;86.64;101684.19;5075191;28;20274;-39
2021/07/02 00:41:04;;;;;;;16.37;11.60;;;;;;;13.21;86.68;101677.38;5075417;28;20066;-39
2021/07/02 00:43:29;;;;;;;19.45;11.82;;;;;;;13.22;86.83;101679.88;5075107;28;20074;-39
2021/07/02 00:45:54;;;;;;;19.10;12.10;;;;;;;13.20;86.65;101678.44;5075099;28;20016;-39
2021/07/02 00:48:20;;;;;;;18.08;12.18;;;;;;;13.20;87.17;101692.00;5074973;28;20028;-39
2021/07/02 00:50:46;;;;;;;18.45;11.38;;;;;;;13.15;86.96;101693.53;5075740;28;20051;-39
2021/07/02 00:53:12;;;;;;;18.55;12.00;;;;;;;13.15;86.85;101692.69;5075572;28;20013;-38
2021/07/02 00:55:38;;;;;;;16.80;12.13;;;;;;;13.08;87.07;101687.34;5074603;28;20024;-39
2021/07/02 00:58:06;;;;;;;15.48;12.00;;;;;;;13.11;87.23;101689.59;5074815;28;20373;-39
2021/07/02 01:00:32;;;;;;;19.42;11.88;;;;;;;13.13;87.06;101686.66;5075080;28;20151;-39
2021/07/02 01:02:57;;;;;;;20.33;12.60;;;;;;;13.10;86.91;101681.69;5074699;28;20044;-39
2021/07/02 01:05:22;;;;;;;14.87;10.63;;;;;;;13.08;87.13;101676.50;5075268;28;20441;-39
2021/07/02 01:07:48;;;;;;;15.70;11.02;;;;;;;13.08;87.00;101681.09;5075122;28;20444;-39
2021/07/02 01:10:17;;;;;;;17.50;11.80;;;;;;;13.07;87.24;101676.69;5075124;28;20032;-39
2021/07/02 01:12:43;;;;;;;18.23;12.38;;;;;;;13.03;87.21;101676.34;5074401;28;20021;-39
2021/07/02 01:15:26;;;;;;;16.77;11.57;;;;;;;13.17;86.89;101682.41;5074718;28;20023;-39
2021/07/02 01:17:52;;;;;;;16.67;11.55;;;;;;;13.05;86.74;101674.22;5074364;28;20033;-38
2021/07/02 01:20:19;;;;;;;18.77;12.23;;;;;;;13.08;87.18;101681.09;5074392;28;20032;-39
2021/07/02 01:22:44;;;;;;;16.83;12.02;;;;;;;13.12;86.96;101680.38;5073938;28;20172;-39
2021/07/02 01:25:10;;;;;;;15.90;11.98;;;;;;;13.12;87.24;101679.56;5075316;28;20115;-39
2021/07/02 01:27:36;;;;;;;;;;;;;;;13.22;86.36;101685.31;5074328;28;20020;-39
2021/07/02 01:30:01;;;;;;;16.37;11.93;;;;;;;13.09;87.04;101683.56;5073290;28;19950;-39
2021/07/02 01:32:27;;;;;;;19.83;13.13;;;;;;;13.07;87.00;101690.28;5074141;28;20271;-39
2021/07/02 01:34:52;;;;;;;23.07;12.13;;;;;;;12.99;87.35;101683.28;5074421;28;20052;-39
2021/07/02 01:37:18;;;;;;;16.90;12.02;;;;;;;13.04;87.17;101680.72;5073949;28;20021;-39
2021/07/02 01:39:43;;;;;;;20.48;13.38;;;;;;;12.97;87.29;101671.81;5074032;28;20032;-39
2021/07/02 01:42:10;;;;;;;22.17;13.15;;;;;;;12.95;87.23;101681.25;5073999;28;20096;-39
2021/07/02 01:44:37;;;;;;;20.17;12.85;;;;;;;12.96;87.36;101677.47;5074502;28;20440;-39
2021/07/02 01:47:03;;;;;;;18.67;12.65;;;;;;;12.97;87.82;101674.50;5073947;28;20021;-39
2021/07/02 01:49:28;;;;;;;19.83;12.65;;;;;;;13.00;87.51;101676.78;5073808;28;20050;-39
2021/07/02 01:51:54;;;;;;;19.90;12.77;;;;;;;12.93;87.56;101669.75;5074131;28;20020;-40
2021/07/02 01:54:19;;;;;;;14.20;10.45;;;;;;;13.02;87.60;101673.84;5074004;28;20513;-39
2021/07/02 01:56:48;;;;;;;18.77;12.73;;;;;;;12.93;87.23;101670.59;5074616;28;20028;-39
2021/07/02 01:59:15;;;;;;;16.52;12.25;;;;;;;12.99;87.50;101675.13;5073627;28;20031;-39
2021/07/02 02:01:41;;;;;;;17.27;12.43;;;;;;;12.88;87.31;101670.44;5073715;28;20369;-39
2021/07/02 02:04:06;;;;;;;17.73;12.30;;;;;;;12.91;87.87;101671.88;5074230;28;20024;-39
2021/07/02 02:06:31;;;;;;;16.33;11.20;;;;;;;12.92;87.49;101663.50;5074251;28;20020;-39
2021/07/02 02:08:57;;;;;;;15.93;11.63;;;;;;;12.93;87.40;101664.34;5073884;28;20265;-39
2021/07/02 02:11:22;;;;;;;16.20;11.67;;;;;;;12.89;87.36;101663.97;5073882;28;20437;-39
2021/07/02 02:13:47;;;;;;;16.10;12.30;;;;;;;12.85;87.54;101660.06;5073779;28;20407;-39
2021/07/02 02:16:13;;;;;;;16.27;12.23;;;;;;;12.85;87.41;101660.06;5074268;28;20439;-39
2021/07/02 02:18:38;;;;;;;17.63;12.73;;;;;;;12.84;87.36;101666.53;5073556;28;20365;-39
2021/07/02 02:21:03;;;;;;;18.60;11.90;;;;;;;12.83;87.34;101662.16;5073783;28;20364;-39
2021/07/02 02:23:29;;;;;;;16.23;11.67;;;;;;;12.79;87.39;101661.78;5073120;28;20063;-39
2021/07/02 02:25:54;;;;;;;17.77;13.03;;;;;;;12.76;87.52;101653.25;5073466;28;20108;-39
2021/07/02 02:28:19;;;;;;;14.80;11.30;;;;;;;12.87;87.42;101655.22;5073169;28;20484;-39
2021/07/02 02:30:44;;;;;;;22.07;13.57;;;;;;;12.82;87.64;101658.59;5074077;28;20033;-40
2021/07/02 02:33:11;;;;;;;22.73;13.90;;;;;;;12.82;87.80;101657.78;5073296;28;20028;-39
2021/07/02 02:35:37;;;;;;;18.70;11.75;;;;;;;12.89;87.78;101650.41;5073632;28;20406;-39
2021/07/02 02:38:02;;;;;;;19.92;14.48;;;;;;;12.89;88.00;101658.56;5073056;28;20048;-39
2021/07/02 02:40:28;;;;;;;24.20;14.65;;;;;;;12.83;87.47;101663.00;5073167;28;20075;-39
2021/07/02 02:42:53;;;;;;;19.50;13.73;;;;;;;12.92;87.31;101659.97;5076994;28;20028;-39
2021/07/02 02:45:19;;;;;;;21.08;14.55;;;;;;;12.89;87.52;101650.41;5078271;28;20031;-39
2021/07/02 02:47:44;;;;;;;21.85;15.40;;;;;;;12.82;87.23;101647.75;5077751;28;20017;-39
2021/07/02 02:50:10;;;;;;;23.50;14.37;;;;;;;12.79;87.67;101641.97;5077387;28;20059;-39
2021/07/02 02:52:35;;;;;;;16.45;13.32;;;;;;;12.93;87.54;101648.03;5077746;28;20346;-39
2021/07/02 02:55:00;;;;;;;21.40;14.38;;;;;;;12.87;87.34;101645.19;5076160;28;20036;-39
2021/07/02 02:57:26;;;;;;;18.97;13.67;;;;;;;12.94;87.16;101649.72;5077209;28;20471;-39
2021/07/02 02:59:52;;;;;;;20.92;14.25;;;;;;;12.88;87.37;101646.00;5076908;28;20020;-39
2021/07/02 03:02:18;;;;;;;22.13;14.65;;;;;;;12.87;87.63;101639.75;5076775;28;20134;-39
2021/07/02 03:04:43;;;;;;;21.27;14.70;;;;;;;12.86;87.33;101642.72;5077824;28;20036;-39
2021/07/02 03:07:09;;;;;;;19.97;14.53;;;;;;;12.90;87.28;101654.78;5077412;28;20031;-39
2021/07/02 03:09:35;;;;;;;22.30;15.03;;;;;;;12.84;87.36;101650.25;5076686;28;20254;-39
2021/07/02 03:12:01;;;;;;;20.33;13.63;;;;;;;12.88;87.51;101651.44;5076860;28;20414;-39
2021/07/02 03:14:26;;;;;;;;;;;;;;;12.99;86.99;101656.13;5077803;28;20028;-39
2021/07/02 03:16:52;;;;;;;21.83;14.23;;;;;;;12.88;87.52;101651.44;5076861;28;19919;-39
2021/07/02 03:19:18;;;;;;;20.08;13.95;;;;;;;12.88;87.57;101654.16;5076688;28;20032;-39
2021/07/02 03:21:43;;;;;;;16.65;11.77;;;;;;;12.92;87.57;101647.22;5076963;28;20031;-39
2021/07/02 03:24:10;;;;;;;23.27;14.23;;;;;;;12.93;87.81;101648.88;5076657;28;20039;-39
2021/07/02 03:26:35;;;;;;;;;;;;;;;13.03;87.29;101651.91;5077808;28;20017;-39
2021/07/02 03:29:01;;;;;;;20.40;13.87;;;;;;;12.97;87.61;101655.50;5076439;28;19909;-39
2021/07/02 03:31:26;;;;;;;23.60;15.10;;;;;;;12.92;87.68;101659.97;5076478;28;20729;-39
2021/07/02 03:33:52;;;;;;;18.80;13.27;;;;;;;12.98;87.50;101654.47;5076381;28;20024;-39
2021/07/02 03:36:17;;;;;;;18.13;12.97;;;;;;;13.02;87.62;101655.66;5076458;28;20051;-39
2021/07/02 03:38:42;;;;;;;18.73;13.13;;;;;;;13.02;87.58;101661.09;5076438;28;20059;-39
2021/07/02 03:41:08;;;;;;;23.27;14.23;;;;;;;13.00;87.57;101649.63;5076895;28;20251;-39
2021/07/02 03:43:34;;;;;;;15.93;11.77;;;;;;;13.06;87.80;101665.00;5075983;28;20050;-39
2021/07/02 03:46:00;;;;;;;15.80;13.07;;;;;;;13.03;87.68;101662.78;5076239;28;20025;-39
2021/07/02 03:48:25;;;;;;;21.15;14.40;;;;;;;13.05;87.96;101660.66;5075967;28;20112;-39
2021/07/02 03:50:51;;;;;;;19.27;13.27;;;;;;;13.09;87.74;101652.88;5075909;28;20112;-39
2021/07/02 03:53:16;;;;;;;17.88;12.80;;;;;;;13.07;87.62;101657.69;5074939;28;20031;-39
2021/07/02 03:55:41;;;;;;;18.37;13.63;;;;;;;13.05;87.58;101667.97;5076881;28;20064;-39
2021/07/02 03:58:06;;;;;;;17.93;12.30;;;;;;;13.06;87.13;101669.63;5075970;28;20409;-39
2021/07/02 04:00:32;;;;;;;16.77;11.53;;;;;;;13.15;87.58;101660.94;5075869;28;20023;-39
2021/07/02 04:02:57;;;;;;;15.52;11.82;;;;;;;13.15;87.00;101662.81;5075600;28;20379;-40
2021/07/02 04:05:23;;;;;;;20.57;13.27;;;;;;;13.12;86.89;101658.66;5076236;28;20024;-39
2021/07/02 04:07:48;;;;;;;12.15;10.15;;;;;;;13.22;87.00;101669.00;5075812;28;20103;-39
2021/07/02 04:10:13;;;;;;;18.23;12.63;;;;;;;13.23;87.09;101664.44;5075528;28;20036;-39
2021/07/02 04:12:39;;;;;;;15.93;10.85;;;;;;;13.26;86.55;101670.22;5075875;28;20024;-39
2021/07/02 04:15:07;;;;;;;14.05;10.15;;;;;;;13.25;86.93;101665.03;5075396;28;20025;-39
2021/07/02 04:17:33;;;;;;;15.98;12.07;;;;;;;13.18;86.39;101666.97;5075567;28;20028;-39
2021/07/02 04:19:59;;;;;;;19.08;13.23;;;;;;;13.17;86.49;101679.69;5076240;28;20033;-39
2021/07/02 04:22:24;;;;;;;17.70;11.52;;;;;;;13.27;86.60;101679.19;5074544;28;20174;-39
2021/07/02 04:24:50;;;;;;;17.40;12.50;;;;;;;13.26;85.89;101675.66;5076253;28;20035;-39
2021/07/02 04:27:16;;;;;;;13.45;10.25;;;;;;;13.35;86.25;101677.00;5076005;28;20024;-39
2021/07/02 04:29:43;;;;;;;16.15;10.98;;;;;;;13.30;85.48;101671.44;5076032;28;20039;-39
2021/07/02 04:32:09;;;;;;;17.33;11.57;;;;;;;13.36;85.46;101680.53;5075392;28;20029;-39
2021/07/02 04:34:34;;;;;;;16.92;11.73;;;;;;;13.39;85.50;101677.38;5075063;28;20365;-39
2021/07/02 04:37:00;;;;;;;15.15;10.13;;;;;;;13.37;85.73;101672.19;5075615;28;20104;-39
2021/07/02 04:39:25;;;;;;;14.95;11.13;;;;;;;13.47;85.47;101670.78;5076023;28;20025;-39
2021/07/02 04:41:51;;;;;;;15.32;10.18;;;;;;;13.54;85.12;101657.94;5075454;28;20021;-39
2021/07/02 04:44:16;;;;;;;15.73;10.63;;;;;;;13.49;84.43;101672.22;5074849;28;20051;-39
2021/07/02 04:46:42;;;;;;;16.90;11.77;;;;;;;13.55;84.44;101673.19;5075564;28;20024;-39
2021/07/02 04:49:07;;;;;;;17.30;11.43;;;;;;;13.61;84.30;101667.66;5075278;28;20086;-39
2021/07/02 04:51:32;;;;;;;15.20;10.52;;;;;;;13.69;83.92;101661.06;5074941;28;20064;-39
2021/07/02 04:53:58;;;;;;;19.00;11.20;;;;;;;13.77;83.74;101668.91;5075068;28;20024;-39
2021/07/02 04:56:23;;;;;;;18.47;11.43;;;;;;;13.82;82.77;101668.22;5075261;28;20460;-39
2021/07/02 04:58:54;;;;;;;20.60;10.85;;;;;;;13.88;83.20;101667.28;5074796;28;20790;-39
2021/07/02 05:01:24;;;;;;;15.93;11.60;;;;;;;13.82;83.40;101657.34;5074790;28;20056;-39
2021/07/02 05:03:50;;;;;;;18.17;11.43;;;;;;;13.78;82.68;101661.56;5074687;28;20024;-40
2021/07/02 05:06:15;;;;;;;14.57;11.15;;;;;;;13.80;83.23;101662.97;5075504;28;20402;-40
2021/07/02 05:08:41;;;;;;;16.30;10.38;;;;;;;13.91;83.49;101664.09;5074331;28;20065;-39
2021/07/02 05:11:08;;;;;;;15.63;10.77;;;;;;;13.88;82.52;101657.22;5075159;28;20464;-40
2021/07/02 05:13:34;;;;;;;16.08;11.27;;;;;;;13.93;83.21;101647.53;5074364;28;20023;-40
2021/07/02 05:15:59;;;;;;;16.27;10.47;;;;;;;13.96;82.55;101656.06;5075228;28;20052;-41
2021/07/02 05:18:24;;;;;;;18.48;10.77;;;;;;;14.03;82.63;101658.66;5074376;28;20020;-40
2021/07/02 05:20:50;;;;;;;13.07;10.60;;;;;;;13.98;82.30;101661.25;5074501;28;20028;-40
2021/07/02 05:23:15;;;;;;;15.38;10.82;;;;;;;14.03;82.20;101670.38;5074619;28;20592;-40
2021/07/02 05:25:41;;;;;;;15.50;10.00;;;;;;;14.15;82.32;101662.22;5074355;28;20032;-40
2021/07/02 05:28:06;;;;;;;15.23;10.02;;;;;;;14.21;81.86;101666.75;5073940;28;20028;-40
2021/07/02 05:30:32;;;;;;;16.00;10.55;;;;;;;14.24;82.12;101666.25;5074480;28;20033;-40
2021/07/02 05:32:57;;;;;;;15.40;9.27;;;;;;;14.39;81.33;101663.88;5074139;28;20027;-40
2021/07/02 05:35:23;;;;;;;14.85;10.02;;;;;;;14.52;80.66;101660.16;5074030;28;20024;-40
2021/07/02 05:37:48;;;;;;;15.77;10.60;;;;;;;14.77;80.19;101670.78;5074322;28;20016;-40
2021/07/02 05:40:16;;;;;;;13.43;9.48;;;;;;;14.86;80.25;101663.06;5074780;28;20074;-39
2021/07/02 05:42:42;;;;;;;15.90;9.98;;;;;;;14.92;79.37;101673.81;5074150;28;20020;-40
2021/07/02 05:45:08;;;;;;;14.40;9.60;;;;;;;14.90;79.63;101673.25;5073984;28;20031;-40
2021/07/02 05:47:47;;;;;;;13.00;10.00;;;;;;;14.84;79.30;101674.22;5074109;28;20021;-40
2021/07/02 05:50:13;;;;;;;14.20;9.00;;;;;;;14.92;79.44;101683.88;5074587;28;20055;-40
2021/07/02 05:52:38;;;;;;;12.35;9.25;;;;;;;14.91;79.81;101676.78;5073886;28;20555;-40
2021/07/02 05:55:05;;;;;;;18.27;10.45;;;;;;;14.90;79.01;101680.59;5074787;28;20016;-40
2021/07/02 05:57:30;;;;;;;15.70;10.50;;;;;;;14.94;80.56;101687.22;5073378;28;20520;-40
2021/07/02 05:59:55;;;;;;;13.50;9.23;;;;;;;14.92;79.23;101681.16;5074000;28;20017;-40
2021/07/02 06:02:21;;;;;;;15.67;10.37;;;;;;;14.93;78.84;101682.81;5073721;28;20341;-40
2021/07/02 06:04:46;;;;;;;16.60;10.93;;;;;;;14.87;78.73;101686.50;5074251;28;20289;-40
2021/07/02 06:07:11;;;;;;;15.10;9.57;;;;;;;14.87;78.67;101686.50;5073577;28;20024;-40
2021/07/02 06:09:37;;;;;;;12.50;8.70;;;;;;;14.96;79.58;101692.41;5074378;28;20028;-40
2021/07/02 06:12:03;;;;;;;17.40;9.43;;;;;;;14.91;79.58;101693.13;5073884;28;20013;-40
2021/07/02 06:14:30;;;;;;;16.70;10.55;;;;;;;14.89;79.81;101701.56;5073124;28;20035;-40
2021/07/02 06:16:57;;;;;;;16.58;11.02;;;;;;;14.86;79.09;101690.31;5073694;28;20041;-40
2021/07/02 06:19:23;;;;;;;16.30;10.50;;;;;;;14.83;78.48;101693.50;5073497;28;20020;-40
2021/07/02 06:21:48;;;;;;;16.60;10.65;;;;;;;14.87;77.91;101691.94;5073785;28;20028;-39
2021/07/02 06:24:14;;;;;;;17.50;11.13;;;;;;;14.91;78.32;101699.41;5073360;28;20024;-39
2021/07/02 06:26:39;;;;;;;13.48;9.10;;;;;;;14.88;78.04;101686.28;5073747;28;20031;-39
2021/07/02 06:29:05;;;;;;;14.18;9.35;;;;;;;15.01;78.94;101698.78;5073419;28;20024;-39
2021/07/02 06:31:30;;;;;;;17.00;11.15;;;;;;;15.03;78.33;101695.81;5073421;28;20035;-39
2021/07/02 06:33:56;;;;;;;16.42;9.90;;;;;;;15.04;79.57;101697.50;5073007;28;20107;-40
2021/07/02 06:36:21;;;;;;;20.38;10.30;;;;;;;15.08;78.17;101699.50;5074113;28;20051;-39
2021/07/02 06:38:47;;;;;;;14.60;10.20;;;;;;;15.09;77.84;101700.34;5073351;28;20081;-40
2021/07/02 06:41:12;;;;;;;13.50;9.73;;;;;;;15.06;78.62;101692.63;5073652;28;20032;-39
2021/07/02 06:43:38;;;;;;;14.15;9.82;;;;;;;15.09;78.81;101705.78;5073764;28;20278;-40
2021/07/02 06:46:03;;;;;;;14.07;9.88;;;;;;;15.10;77.67;101702.81;5073454;28;20071;-40
2021/07/02 06:48:28;;;;;;;12.83;8.70;;;;;;;15.11;77.67;101709.91;5073258;28;20048;-40
2021/07/02 06:50:56;;;;;;;12.07;9.33;;;;;;;15.11;77.12;101709.09;5073199;28;20328;-40
2021/07/02 06:53:21;;;;;;;12.52;9.02;;;;;;;15.08;77.66;101709.53;5073756;28;20278;-40
2021/07/02 06:55:47;;;;;;;9.90;7.13;;;;;;;15.15;78.15;101710.25;5073472;28;20021;-40
2021/07/02 06:58:12;;;;;;;13.75;9.38;;;;;;;15.14;78.67;101704.00;5073619;28;20084;-40
2021/07/02 07:00:39;;;;;;;12.48;8.98;;;;;;;15.09;78.78;101712.06;5073035;28;20052;-40
2021/07/02 07:03:05;;;;;;;11.48;8.68;;;;;;;15.14;78.87;101709.44;5071800;28;20040;-40
2021/07/02 07:05:30;;;;;;;;;;;;;;;15.24;78.51;101714.28;5073969;28;20025;-40
2021/07/02 07:07:56;;;;;;;14.13;9.07;;;;;;;15.17;77.71;101713.56;5071486;28;20380;-40
2021/07/02 07:10:21;;;;;;;15.60;9.25;;;;;;;15.22;77.92;101715.56;5073223;28;20013;-40
2021/07/02 07:12:46;;;;;;;11.85;8.40;;;;;;;15.25;78.15;101715.91;5073507;28;20506;-40
2021/07/02 07:15:13;;;;;;;12.90;9.20;;;;;;;15.26;77.02;101716.75;5072655;28;20021;-40
2021/07/02 07:17:39;;;;;;;13.40;9.63;;;;;;;15.20;77.30;101713.09;5073635;28;20025;-40
2021/07/02 07:20:05;;;;;;;12.18;8.20;;;;;;;15.24;77.01;101708.00;5072897;28;20472;-40
2021/07/02 07:22:31;;;;;;;11.70;8.88;;;;;;;15.26;76.65;101716.75;5071301;28;20075;-40
2021/07/02 07:24:57;;;;;;;11.82;9.05;;;;;;;15.25;76.73;101707.75;5072761;28;20025;-39
2021/07/02 07:27:22;;;;;;;13.75;9.65;;;;;;;15.25;76.52;101718.66;5073730;28;20043;-40
2021/07/02 07:29:47;;;;;;;14.45;9.60;;;;;;;15.27;77.31;101724.66;5076805;28;20025;-40
2021/07/02 07:32:13;;;;;;;14.25;8.35;;;;;;;15.32;77.27;101719.31;5077013;28;20051;-40
2021/07/02 07:34:47;;;;;;;12.45;8.88;;;;;;;15.33;77.22;101723.72;5077167;28;20016;-40
2021/07/02 07:37:19;;;;;;;15.35;9.20;;;;;;;15.37;76.89;101718.59;5076917;28;20020;-40
2021/07/02 07:39:46;;;;;;;13.18;8.35;;;;;;;15.45;77.57;101720.97;5076585;28;20043;-40
2021/07/02 07:42:12;;;;;;;14.65;9.70;;;;;;;15.44;75.95;101722.84;5076253;28;20349;-40
2021/07/02 07:44:37;;;;;;;12.40;8.90;;;;;;;15.39;75.63;101727.38;5075984;28;20028;-40
2021/07/02 07:47:03;;;;;;;14.50;9.98;;;;;;;15.40;75.80;101724.41;5076012;28;20075;-40
2021/07/02 07:49:28;;;;;;;12.73;9.52;;;;;;;15.30;77.01;101728.81;5076388;28;20021;-40
2021/07/02 07:52:00;;;;;;;16.57;9.70;;;;;;;15.36;76.96;101727.84;5076440;28;20052;-40
2021/07/02 07:54:27;;;;;;;13.57;9.90;;;;;;;15.36;76.89;101728.69;5076453;28;20722;-40
2021/07/02 07:56:53;;;;;;;15.05;10.55;;;;;;;15.34;76.86;101725.38;5076814;28;20031;-40
2021/07/02 07:59:25;;;;;;;14.93;10.00;;;;;;;15.40;77.30;101726.31;5075943;28;20100;-40
2021/07/02 08:01:50;;;;;;;11.57;8.88;;;;;;;15.47;76.61;101729.75;5075626;28;20056;-40
2021/07/02 08:04:16;;;;;;;19.60;10.67;;;;;;;15.51;77.85;101730.06;5075878;28;20024;-40
2021/07/02 08:06:42;;;;;;;15.57;10.77;;;;;;;15.54;76.42;101729.59;5076441;28;20021;-41
2021/07/02 08:09:08;;;;;;;16.73;10.32;;;;;;;15.55;77.29;101723.88;5075805;28;20373;-41
2021/07/02 08:11:34;;;;;;;;;;;;;;;15.70;77.09;101724.19;5076978;28;20028;-41
2021/07/02 08:14:00;;;;;;;15.82;11.23;;;;;;;15.66;77.19;101731.25;5075614;28;20337;-41
2021/07/02 08:16:26;;;;;;;16.25;11.70;;;;;;;15.78;76.77;101738.53;5076015;28;20090;-41
2021/07/02 08:18:51;;;;;;;18.65;12.13;;;;;;;15.83;76.69;101731.28;5075566;28;20020;-41
2021/07/02 08:21:16;;;;;;;;;;;;;;;15.98;77.34;101738.06;5076543;28;20025;-41
2021/07/02 08:23:42;;;;;;;17.73;12.50;;;;;;;16.12;77.76;101732.06;5074303;28;20372;-41
2021/07/02 08:26:07;;;;;;;21.33;14.88;;;;;;;16.19;77.44;101740.09;5076073;28;20111;-41
2021/07/02 08:31:16;;;;;;;19.13;14.32;;;;;;;16.39;76.23;101740.41;5075479;28;20044;-41
2021/07/02 08:33:42;;;;;;;25.40;16.13;;;;;;;16.46;76.02;101746.56;5075034;28;20372;-41
2021/07/02 08:36:07;;;;;;;;;;;;;;;16.65;76.98;101741.66;5076057;28;20491;-41
2021/07/02 08:38:32;;;;;;;23.45;16.00;;;;;;;16.63;75.89;101732.06;5074971;28;19911;-41
2021/07/02 08:40:58;;;;;;;20.17;14.65;;;;;;;16.66;76.96;101735.13;5075835;28;20073;-41
2021/07/02 08:43:23;;;;;;;21.90;15.15;;;;;;;16.64;76.27;101737.28;5074798;28;20024;-41
2021/07/02 08:45:49;;;;;;;23.98;15.32;;;;;;;16.66;76.35;101731.56;5075636;28;20039;-41
2021/07/02 08:48:20;;;;;;;20.80;14.52;;;;;;;16.75;76.12;101732.00;5075057;28;20020;-41
2021/07/02 08:50:46;;;;;;;19.83;15.95;;;;;;;16.83;76.03;101731.56;5075824;28;20029;-41
2021/07/02 08:53:12;;;;;;;;;;;;;;;16.98;76.75;101739.97;5075315;28;20032;-41
2021/07/02 08:55:39;;;;;;;24.83;15.25;;;;;;;16.90;76.34;101746.72;5075234;28;19909;-41
2021/07/02 08:58:12;;;;;;;20.23;16.58;;;;;;;16.81;76.24;101750.94;5074806;28;20365;-41
2021/07/02 09:00:37;;;;;;;24.90;16.95;;;;;;;16.78;76.42;101753.34;5075055;28;20021;-41
2021/07/02 09:03:36;;;;;;;25.20;18.35;;;;;;;16.74;76.28;101755.78;5074701;28;20535;-41
2021/07/02 09:06:18;;;;;;;25.88;17.40;;;;;;;16.68;76.55;101762.19;5075475;28;20042;-41
2021/07/02 09:09:01;;;;;;;25.25;17.70;;;;;;;16.65;76.61;101759.97;5075211;28;20029;-41
2021/07/02 09:11:34;;;;;;;25.08;17.40;;;;;;;16.62;76.45;101757.72;5074531;28;20033;-41
2021/07/02 09:14:00;;;;;;;25.42;17.50;;;;;;;16.62;77.24;101766.72;5075278;28;20060;-41
2021/07/02 09:16:40;;;;;;;26.77;17.55;;;;;;;16.61;77.77;101762.34;5074613;28;20036;-41
2021/07/02 09:19:30;;;;;;;27.42;18.42;;;;;;;16.58;76.94;101768.31;5074692;28;20357;-41
2021/07/02 09:22:15;;;;;;;31.92;18.55;;;;;;;16.55;77.92;101774.28;5074611;28;20437;-41
2021/07/02 09:24:44;;;;;;;28.30;19.58;;;;;;;16.46;77.62;101767.56;5074502;28;20030;-41
2021/07/02 09:27:22;;;;;;;29.75;18.75;;;;;;;16.46;77.67;101773.03;5074336;28;20334;-41
2021/07/02 09:30:08;;;;;;;26.48;19.63;;;;;;;16.39;78.18;101769.63;5074960;28;20028;-41
2021/07/02 09:32:37;;;;;;;27.83;18.65;;;;;;;16.34;78.44;101777.72;5074777;28;20356;-41
2021/07/02 09:35:03;;;;;;;30.17;20.48;;;;;;;16.34;78.82;101772.25;5074576;28;20368;-41
2021/07/02 09:37:34;;;;;;;24.73;18.88;;;;;;;16.32;78.92;101780.72;5074170;28;20103;-41
2021/07/02 09:40:33;;;;;;;30.02;21.25;;;;;;;16.31;78.83;101783.69;5074330;28;20103;-41
2021/07/02 09:43:03;;;;;;;29.73;20.40;;;;;;;16.25;78.63;101785.50;5069422;28;20526;-41
2021/07/02 09:45:31;;;;;;;34.30;21.55;;;;;;;16.25;78.87;101790.97;5074784;28;20029;-41
2021/07/02 09:48:05;;;;;;;32.70;21.38;;;;;;;16.23;78.69;101787.63;5073858;28;20052;-41
2021/07/02 09:50:30;;;;;;;35.85;22.65;;;;;;;16.18;78.53;101790.28;5073297;28;20079;-41
2021/07/02 09:53:16;;;;;;;36.92;21.40;;;;;;;16.20;79.22;101793.56;5073807;28;20044;-41
2021/07/02 09:55:48;;;;;;;37.80;23.38;;;;;;;16.19;79.71;101800.94;5074120;28;20064;-41
2021/07/02 09:58:16;;;;;;;39.60;25.55;;;;;;;16.13;81.76;101798.38;5073747;28;20025;-41
2021/07/02 10:00:43;;;;;;;39.78;25.58;;;;;;;16.13;81.67;101812.84;5073932;28;20449;-41
2021/07/02 10:03:09;;;;;;;37.22;23.88;;;;;;;16.11;82.06;101811.44;5073349;28;20051;-41
2021/07/02 10:05:50;;;;;;;39.97;25.65;;;;;;;16.13;83.20;101815.56;5073927;28;20056;-41
2021/07/02 10:08:17;;;;;;;37.15;25.73;;;;;;;16.03;83.02;101820.00;5073319;28;20461;-41
2021/07/02 10:10:43;;;;;;;41.53;26.90;;;;;;;16.00;82.82;101824.03;5073806;28;20096;-41
2021/07/02 10:13:09;;;;;;;42.08;26.70;;;;;;;15.95;84.04;101826.66;5073617;28;20051;-41
2021/07/02 10:15:35;;;;;;;39.50;26.88;;;;;;;15.99;83.80;101818.84;5073522;28;20048;-38
2021/07/02 10:18:01;;;;;;;40.10;27.15;;;;;;;16.00;83.78;101821.31;5073489;28;20036;-40
2021/07/02 10:20:28;;;;;;;44.05;28.77;;;;;;;15.92;84.66;101825.28;5073769;28;20020;-41
2021/07/02 10:22:59;;;;;;;44.20;28.05;;;;;;;16.01;84.51;101822.16;5073404;28;20031;-41
2021/07/02 10:25:27;;;;;;;41.50;28.33;;;;;;;15.98;84.12;101828.94;5074156;28;20020;-41
2021/07/02 10:27:53;;;;;;;38.83;26.90;;;;;;;16.01;84.90;101839.38;5071808;28;20033;-41
2021/07/02 10:30:18;;;;;;;;;;;;;;;16.16;83.23;101836.09;5074614;28;20028;-41
2021/07/02 10:32:46;;;;;;;43.58;27.55;;;;;;;16.07;84.85;101838.38;5073286;28;20344;-41
2021/07/02 10:35:14;;;;;;;40.35;25.90;;;;;;;16.10;84.87;101834.31;5073320;28;20024;-39
2021/07/02 10:37:42;;;;;;;40.05;27.58;;;;;;;16.08;85.24;101828.28;5072918;28;20509;-39
2021/07/02 10:40:37;;;;;;;40.95;27.17;;;;;;;16.20;84.07;101840.81;5072968;28;20025;-40
2021/07/02 10:43:09;;;;;;;38.35;26.33;;;;;;;16.25;84.66;101839.25;5051006;28;20520;-39
2021/07/02 10:45:36;;;;;;;45.65;28.65;;;;;;;16.20;84.66;101842.69;5051565;28;20025;-39
2021/07/02 10:48:02;;;;;;;43.22;28.98;;;;;;;16.14;84.27;101833.59;5050926;28;20029;-39
2021/07/02 10:50:47;;;;;;;40.83;26.80;;;;;;;16.17;83.73;101837.75;5051052;28;20036;-40
2021/07/02 10:53:26;;;;;;;42.35;27.60;;;;;;;16.19;84.30;101836.41;5050297;28;20033;-40
2021/07/02 10:55:53;;;;;;;43.38;27.52;;;;;;;16.21;84.47;101834.28;5051490;28;20146;-39
2021/07/02 10:58:20;;;;;;;41.70;28.55;;;;;;;16.20;84.04;101838.09;5050700;28;20476;-40
2021/07/02 11:01:07;;;;;;;44.25;28.30;;;;;;;16.24;84.70;101830.22;5050626;28;20091;-40
2021/07/02 11:03:33;;;;;;;45.78;29.70;;;;;;;16.29;84.24;101840.41;5054035;28;20055;-40
2021/07/02 11:06:26;;;;;;;45.58;27.50;;;;;;;16.32;84.23;101845.38;5037779;28;20057;-40
2021/07/02 11:08:52;;;;;;;44.63;27.23;;;;;;;16.38;83.84;101833.47;5054823;28;20059;-40
2021/07/02 11:11:17;;;;;;;44.90;29.10;;;;;;;16.43;83.66;101830.84;5055106;28;20449;-40
2021/07/02 11:14:10;;;;;;;46.95;28.90;;;;;;;16.55;83.91;101842.53;5054516;28;20505;-40
2021/07/02 11:17:14;;;;;;;40.83;28.08;;;;;;;16.58;82.82;101836.56;5054328;28;20045;-40
2021/07/02 11:19:40;;;;;;;40.40;26.85;;;;;;;16.60;82.93;101831.69;5056375;28;20194;-39